createdAt,value
2019-02-18T00:01:20.226Z,112.10
2019-02-18T00:03:27.965Z,78.43
2019-02-18T00:05:35.703Z,73.70
2019-02-18T00:07:43.273Z,78.93
2019-02-18T00:09:51.015Z,64.27
2019-02-18T00:11:58.800Z,72.33
2019-02-18T00:14:06.642Z,70.37
2019-02-18T00:16:14.658Z,73.80
2019-02-18T00:18:22.477Z,89.27
2019-02-18T00:20:30.249Z,94.40
2019-02-18T00:22:37.974Z,92.40
2019-02-18T00:24:45.626Z,93.47
2019-02-18T00:26:53.343Z,89.23
2019-02-18T00:29:01.141Z,85.90
2019-02-18T00:31:08.865Z,84.90
2019-02-18T00:33:16.472Z,94.07
2019-02-18T00:35:24.114Z,84.20
2019-02-18T00:37:31.810Z,85.80
2019-02-18T00:39:39.530Z,80.07
2019-02-18T00:41:49.305Z,85.67
2019-02-18T00:43:56.705Z,87.97
2019-02-18T00:46:04.463Z,82.77
2019-02-18T00:48:12.372Z,84.77
2019-02-18T00:50:20.067Z,77.03
2019-02-18T00:52:27.837Z,82.63
2019-02-18T00:54:35.546Z,94.20
2019-02-18T00:56:43.203Z,75.90
2019-02-18T00:58:50.991Z,87.40
2019-02-18T01:00:58.843Z,95.80
2019-02-18T01:03:06.611Z,86.77
2019-02-18T01:05:14.500Z,100.30
2019-02-18T01:07:22.233Z,98.70
2019-02-18T01:09:30.011Z,93.60
2019-02-18T01:11:37.678Z,99.80
2019-02-18T01:13:45.515Z,96.13
2019-02-18T01:15:53.267Z,94.20
2019-02-18T01:18:00.845Z,91.83
2019-02-18T01:20:09.840Z,100.33
2019-02-18T01:22:17.589Z,89.67
2019-02-18T01:24:25.400Z,89.57
2019-02-18T01:26:33.083Z,95.03
2019-02-18T01:28:40.847Z,92.17
2019-02-18T01:30:48.510Z,84.87
2019-02-18T01:32:56.247Z,73.93
2019-02-18T01:35:04.073Z,64.47
2019-02-18T01:37:11.909Z,67.30
2019-02-18T01:39:19.659Z,78.60
2019-02-18T01:41:27.376Z,100.60
2019-02-18T01:43:35.056Z,90.50
2019-02-18T01:45:42.800Z,83.17
2019-02-18T01:47:50.527Z,92.43
2019-02-18T01:49:58.297Z,75.70
2019-02-18T01:52:06.031Z,74.33
2019-02-18T01:54:13.851Z,65.60
2019-02-18T01:56:21.520Z,61.30
2019-02-18T01:58:29.104Z,63.90
2019-02-18T02:00:37.011Z,67.83
2019-02-18T02:02:45.004Z,68.83
2019-02-18T02:04:52.427Z,61.47
2019-02-18T02:07:00.023Z,56.67
2019-02-18T02:09:12.791Z,62.17
2019-02-18T02:11:20.470Z,53.23
2019-02-18T02:13:33.411Z,62.80
2019-02-18T02:15:41.223Z,58.60
2019-02-18T02:17:49.035Z,63.27
2019-02-18T02:19:56.864Z,63.97
2019-02-18T02:22:04.541Z,57.70
2019-02-18T02:24:12.321Z,59.00
2019-02-18T02:26:20.075Z,62.43
2019-02-18T02:28:27.906Z,58.73
2019-02-18T02:30:35.354Z,71.27
2019-02-18T02:32:43.091Z,71.23
2019-02-18T02:34:50.718Z,63.67
2019-02-18T02:36:58.472Z,66.27
2019-02-18T02:39:06.976Z,66.60
2019-02-18T02:41:14.702Z,62.00
2019-02-18T02:43:22.460Z,66.87
2019-02-18T02:45:30.345Z,75.90
2019-02-18T02:47:37.989Z,67.93
2019-02-18T02:49:45.532Z,73.57
2019-02-18T02:51:53.061Z,75.67
2019-02-18T02:54:00.675Z,64.33
2019-02-18T02:56:08.383Z,64.57
2019-02-18T02:58:16.006Z,62.07
2019-02-18T03:00:23.567Z,54.43
2019-02-18T03:02:31.205Z,65.67
2019-02-18T03:04:39.030Z,54.40
2019-02-18T03:06:46.726Z,64.73
2019-02-18T03:08:54.364Z,59.37
2019-02-18T03:11:02.006Z,59.70
2019-02-18T03:13:09.812Z,55.67
2019-02-18T03:15:17.370Z,59.90
2019-02-18T03:17:25.027Z,57.57
2019-02-18T03:19:32.905Z,62.07
2019-02-18T03:21:40.521Z,60.43
2019-02-18T03:23:48.254Z,58.10
2019-02-18T03:25:56.980Z,67.60
2019-02-18T03:28:32.925Z,74.40
2019-02-18T03:30:57.949Z,78.17
2019-02-18T03:33:05.758Z,61.20
2019-02-18T03:35:13.505Z,58.40
2019-02-18T03:37:21.303Z,59.40
2019-02-18T03:39:28.978Z,56.80
2019-02-18T03:41:36.988Z,67.27
2019-02-18T03:43:44.965Z,59.73
2019-02-18T03:45:52.552Z,54.13
2019-02-18T03:48:00.352Z,59.47
2019-02-18T03:50:08.408Z,56.67
2019-02-18T03:52:16.086Z,52.13
2019-02-18T03:54:24.153Z,62.00
2019-02-18T03:56:31.871Z,56.70
2019-02-18T03:58:39.769Z,52.97
2019-02-18T04:00:47.714Z,54.37
2019-02-18T04:02:55.444Z,56.73
2019-02-18T04:05:03.199Z,55.87
2019-02-18T04:07:10.920Z,58.50
2019-02-18T04:09:18.578Z,55.50
2019-02-18T04:11:26.438Z,51.97
2019-02-18T04:13:34.124Z,59.07
2019-02-18T04:15:41.800Z,55.13
2019-02-18T04:17:49.559Z,55.87
2019-02-18T04:19:57.280Z,53.70
2019-02-18T04:22:05.067Z,52.27
2019-02-18T04:24:12.730Z,51.83
2019-02-18T04:26:20.406Z,51.47
2019-02-18T04:28:28.029Z,50.37
2019-02-18T04:30:35.948Z,52.43
2019-02-18T04:32:43.403Z,50.77
2019-02-18T04:34:51.148Z,50.23
2019-02-18T04:36:58.871Z,58.73
2019-02-18T04:39:07.703Z,59.27
2019-02-18T04:41:15.337Z,64.60
2019-02-18T04:43:23.060Z,69.30
2019-02-18T04:45:30.654Z,65.50
2019-02-18T04:47:38.280Z,76.47
2019-02-18T04:49:45.999Z,75.87
2019-02-18T04:51:53.626Z,72.07
2019-02-18T04:54:01.451Z,71.77
2019-02-18T04:56:09.289Z,64.50
2019-02-18T04:58:17.065Z,59.93
2019-02-18T05:00:24.799Z,62.70
2019-02-18T05:02:32.371Z,57.80
2019-02-18T05:04:40.306Z,53.80
2019-02-18T05:06:48.002Z,56.10
2019-02-18T05:09:05.094Z,57.83
2019-02-18T05:11:05.136Z,51.50
2019-02-18T05:13:12.819Z,55.90
2019-02-18T05:15:20.448Z,59.03
2019-02-18T05:17:28.070Z,54.40
2019-02-18T05:19:36.030Z,57.23
2019-02-18T05:21:43.749Z,55.00
2019-02-18T05:23:51.451Z,50.80
2019-02-18T05:25:59.226Z,54.97
2019-02-18T05:28:06.997Z,50.53
2019-02-18T05:30:14.756Z,57.67
2019-02-18T05:32:22.468Z,61.67
2019-02-18T05:34:30.161Z,59.10
2019-02-18T05:36:37.968Z,63.13
2019-02-18T05:38:45.694Z,75.13
2019-02-18T05:40:53.338Z,67.53
2019-02-18T05:43:01.123Z,65.93
2019-02-18T05:45:08.991Z,72.77
2019-02-18T05:47:17.635Z,69.37
2019-02-18T05:49:25.560Z,63.07
2019-02-18T05:51:33.229Z,61.60
2019-02-18T05:53:40.986Z,65.60
2019-02-18T05:55:48.767Z,59.97
2019-02-18T05:57:56.372Z,67.37
2019-02-18T06:00:04.083Z,63.60
2019-02-18T06:02:11.750Z,78.00
2019-02-18T06:04:19.561Z,74.97
2019-02-18T06:06:27.259Z,80.83
2019-02-18T06:08:34.935Z,81.97
2019-02-18T06:10:42.650Z,83.43
2019-02-18T06:12:50.351Z,82.87
2019-02-18T06:14:58.151Z,96.50
2019-02-18T06:17:05.764Z,95.53
2019-02-18T06:19:13.613Z,89.23
2019-02-18T06:21:21.301Z,100.77
2019-02-18T06:23:29.006Z,89.37
2019-02-18T06:25:36.755Z,91.17
2019-02-18T06:27:44.655Z,128.03
2019-02-18T06:29:52.423Z,127.30
2019-02-18T06:32:00.166Z,135.83
2019-02-18T06:34:07.907Z,236.23
2019-02-18T06:36:15.726Z,259.53
2019-02-18T06:38:23.472Z,188.63
2019-02-18T06:40:31.411Z,138.27
2019-02-18T06:42:39.049Z,141.40
2019-02-18T06:44:55.579Z,140.07
2019-02-18T06:47:07.643Z,112.37
2019-02-18T06:49:17.550Z,98.03
2019-02-18T06:51:25.389Z,88.10
2019-02-18T06:53:33.199Z,94.63
2019-02-18T06:55:40.856Z,106.83
2019-02-18T06:58:16.057Z,102.30
2019-02-18T07:00:38.960Z,101.00
2019-02-18T07:02:57.588Z,95.33
2019-02-18T07:05:13.486Z,90.70
2019-02-18T07:07:45.990Z,89.80
2019-02-18T07:10:06.299Z,162.63
2019-02-18T07:12:26.865Z,121.73
2019-02-18T07:14:34.590Z,130.33
2019-02-18T07:16:42.305Z,138.93
2019-02-18T07:18:50.037Z,124.70
2019-02-18T07:20:57.733Z,134.17
2019-02-18T07:23:05.416Z,140.30
2019-02-18T07:25:13.349Z,130.30
2019-02-18T07:27:21.075Z,99.87
2019-02-18T07:29:28.766Z,92.03
2019-02-18T07:31:36.428Z,87.67
2019-02-18T07:33:44.232Z,89.40
2019-02-18T07:35:51.904Z,84.07
2019-02-18T07:37:59.684Z,73.03
2019-02-18T07:40:08.936Z,62.97
2019-02-18T07:42:16.760Z,64.70
2019-02-18T07:44:24.425Z,76.77
2019-02-18T07:46:32.259Z,68.90
2019-02-18T07:48:40.015Z,59.10
2019-02-18T07:50:47.756Z,65.63
2019-02-18T07:52:55.577Z,68.87
2019-02-18T07:55:03.219Z,67.80
2019-02-18T07:57:10.897Z,68.67
2019-02-18T07:59:18.682Z,60.97
2019-02-18T08:01:26.455Z,59.07
2019-02-18T08:03:34.259Z,54.47
2019-02-18T08:05:42.123Z,61.07
2019-02-18T08:07:49.923Z,58.80
2019-02-18T08:09:57.560Z,64.20
2019-02-18T08:12:05.414Z,71.40
2019-02-18T08:14:13.023Z,60.20
2019-02-18T08:16:20.737Z,64.37
2019-02-18T08:18:28.596Z,65.77
2019-02-18T08:20:36.337Z,61.80
2019-02-18T08:22:44.043Z,60.60
2019-02-18T08:24:51.964Z,60.03
2019-02-18T08:26:59.677Z,63.87
2019-02-18T08:29:07.339Z,57.10
2019-02-18T08:31:16.889Z,61.90
2019-02-18T08:33:24.624Z,62.40
2019-02-18T08:35:32.277Z,55.00
2019-02-18T08:37:40.027Z,58.30
2019-02-18T08:39:47.932Z,54.47
2019-02-18T08:41:55.726Z,58.47
2019-02-18T08:44:03.513Z,56.13
2019-02-18T08:46:11.164Z,52.70
2019-02-18T08:48:18.834Z,53.57
2019-02-18T08:50:26.587Z,47.13
2019-02-18T08:52:34.227Z,52.33
2019-02-18T08:54:42.297Z,60.70
2019-02-18T08:56:50.177Z,52.43
2019-02-18T08:58:57.805Z,54.70
2019-02-18T09:01:05.462Z,56.90
2019-02-18T09:03:13.269Z,51.37
2019-02-18T09:05:21.190Z,57.33
2019-02-18T09:07:29.064Z,52.80
2019-02-18T09:09:36.976Z,50.20
2019-02-18T09:11:44.835Z,49.40
2019-02-18T09:13:52.512Z,48.23
2019-02-18T09:16:00.654Z,69.23
2019-02-18T09:18:09.042Z,49.57
2019-02-18T09:20:16.854Z,45.40
2019-02-18T09:22:42.223Z,50.70
2019-02-18T09:24:56.461Z,47.60
2019-02-18T09:27:04.051Z,58.17
2019-02-18T09:29:11.848Z,48.53
2019-02-18T09:31:24.986Z,47.60
2019-02-18T09:33:32.778Z,41.20
2019-02-18T09:35:41.144Z,42.03
2019-02-18T09:37:48.987Z,37.87
2019-02-18T09:39:56.649Z,49.00
2019-02-18T09:42:04.373Z,34.30
2019-02-18T09:44:12.479Z,40.10
2019-02-18T09:46:20.037Z,38.50
2019-02-18T09:48:27.872Z,39.90
2019-02-18T09:50:35.758Z,42.63
2019-02-18T09:52:43.516Z,32.97
2019-02-18T09:54:51.352Z,38.13
2019-02-18T09:56:59.133Z,35.23
2019-02-18T09:59:06.996Z,36.17
2019-02-18T10:01:14.786Z,35.70
2019-02-18T10:03:31.681Z,40.63
2019-02-18T10:05:31.959Z,39.43
2019-02-18T10:07:39.766Z,31.83
2019-02-18T10:09:47.637Z,28.07
2019-02-18T10:11:55.387Z,30.57
2019-02-18T10:14:03.234Z,27.23
2019-02-18T10:16:11.045Z,27.23
2019-02-18T10:18:18.733Z,29.20
2019-02-18T10:20:26.600Z,35.00
2019-02-18T10:22:34.466Z,25.83
2019-02-18T10:24:50.749Z,24.93
2019-02-18T10:26:51.882Z,31.70
2019-02-18T10:28:59.778Z,31.73
2019-02-18T10:31:07.734Z,24.07
2019-02-18T10:33:15.782Z,29.47
2019-02-18T10:35:26.352Z,27.20
2019-02-18T10:37:33.493Z,28.73
2019-02-18T10:39:41.270Z,33.07
2019-02-18T10:41:49.306Z,25.03
2019-02-18T10:43:57.194Z,28.43
2019-02-18T10:46:05.116Z,23.37
2019-02-18T10:48:12.996Z,27.77
2019-02-18T10:50:21.093Z,23.70
2019-02-18T10:52:28.880Z,24.07
2019-02-18T10:54:37.240Z,27.27
2019-02-18T10:56:45.140Z,31.47
2019-02-18T10:58:53.091Z,20.23
2019-02-18T11:01:00.892Z,18.80
2019-02-18T11:03:09.317Z,27.10
2019-02-18T11:05:17.424Z,29.23
2019-02-18T11:07:25.270Z,28.00
2019-02-18T11:09:33.129Z,29.57
2019-02-18T11:11:40.996Z,26.67
2019-02-18T11:13:49.194Z,26.90
2019-02-18T11:15:57.008Z,22.27
2019-02-18T11:18:04.899Z,24.73
2019-02-18T11:20:13.056Z,22.73
2019-02-18T11:22:20.706Z,20.50
2019-02-18T11:24:28.459Z,23.57
2019-02-18T11:26:36.419Z,20.27
2019-02-18T11:28:44.244Z,21.77
2019-02-18T11:30:51.968Z,27.53
2019-02-18T11:32:59.535Z,20.03
2019-02-18T11:35:08.073Z,38.30
2019-02-18T11:37:15.848Z,27.60
2019-02-18T11:39:23.776Z,31.63
2019-02-18T11:41:31.621Z,29.87
2019-02-18T11:43:39.741Z,27.77
2019-02-18T11:45:47.578Z,33.90
2019-02-18T11:47:55.334Z,27.57
2019-02-18T11:50:03.231Z,27.57
2019-02-18T11:52:11.009Z,33.40
2019-02-18T11:54:18.706Z,27.60
2019-02-18T11:56:26.408Z,25.47
2019-02-18T11:58:34.569Z,31.33
2019-02-18T12:01:03.928Z,26.93
2019-02-18T12:03:12.708Z,26.10
2019-02-18T12:05:20.852Z,27.10
2019-02-18T12:07:28.882Z,26.93
2019-02-18T12:09:36.574Z,26.83
2019-02-18T12:11:44.370Z,25.37
2019-02-18T12:13:52.187Z,26.37
2019-02-18T12:15:59.944Z,30.40
2019-02-18T12:18:08.709Z,18.37
2019-02-18T12:20:17.175Z,22.47
2019-02-18T12:22:25.508Z,31.10
2019-02-18T12:24:33.547Z,21.53
2019-02-18T12:26:41.459Z,19.50
2019-02-18T12:28:49.340Z,29.20
2019-02-18T12:30:56.991Z,20.40
2019-02-18T12:33:05.237Z,20.83
2019-02-18T12:35:13.492Z,30.70
2019-02-18T12:37:21.147Z,34.13
2019-02-18T12:39:28.815Z,27.90
2019-02-18T12:41:36.772Z,26.00
2019-02-18T12:43:44.553Z,31.20
2019-02-18T12:45:52.569Z,50.70
2019-02-18T12:48:00.656Z,31.97
2019-02-18T12:50:09.006Z,28.87
2019-02-18T12:52:16.700Z,26.50
2019-02-18T12:54:24.515Z,32.43
2019-02-18T12:56:32.165Z,28.33
2019-02-18T12:58:39.902Z,29.27
2019-02-18T13:00:47.876Z,27.87
2019-02-18T13:02:55.587Z,25.63
2019-02-18T13:05:03.917Z,27.57
2019-02-18T13:07:11.834Z,34.63
2019-02-18T13:09:19.750Z,26.93
2019-02-18T13:11:27.608Z,27.10
2019-02-18T13:13:35.395Z,25.17
2019-02-18T13:15:43.083Z,29.90
2019-02-18T13:17:51.000Z,20.97
2019-02-18T13:19:58.710Z,34.97
2019-02-18T13:22:06.411Z,25.30
2019-02-18T13:24:14.484Z,26.33
2019-02-18T13:26:22.265Z,30.33
2019-02-18T13:28:30.046Z,23.50
2019-02-18T13:30:38.007Z,25.60
2019-02-18T13:32:45.794Z,27.07
2019-02-18T13:34:53.592Z,22.73
2019-02-18T13:37:03.554Z,28.40
2019-02-18T13:39:11.902Z,21.67
2019-02-18T13:41:19.794Z,24.27
2019-02-18T13:43:27.628Z,25.80
2019-02-18T13:45:35.624Z,28.77
2019-02-18T13:47:43.859Z,30.37
2019-02-18T13:49:51.807Z,26.33
2019-02-18T13:51:59.756Z,26.27
2019-02-18T13:54:07.962Z,33.77
2019-02-18T13:56:16.062Z,28.57
2019-02-18T13:58:23.982Z,32.57
2019-02-18T14:00:31.911Z,31.93
2019-02-18T14:02:40.055Z,31.27
2019-02-18T14:04:48.294Z,30.30
2019-02-18T14:06:56.069Z,32.70
2019-02-18T14:09:04.266Z,33.00
2019-02-18T14:11:12.282Z,36.00
2019-02-18T14:13:19.951Z,31.90
2019-02-18T14:15:27.976Z,37.57
2019-02-18T14:17:36.027Z,36.10
2019-02-18T14:19:43.808Z,38.53
2019-02-18T14:21:51.925Z,33.13
2019-02-18T14:24:00.878Z,34.47
2019-02-18T14:26:08.802Z,38.03
2019-02-18T14:28:17.258Z,32.83
2019-02-18T14:30:25.579Z,36.17
2019-02-18T14:32:33.483Z,30.37
2019-02-18T14:34:41.419Z,41.97
2019-02-18T14:36:49.450Z,40.30
2019-02-18T14:38:57.909Z,37.93
2019-02-18T14:41:06.260Z,43.60
2019-02-18T14:43:14.530Z,47.67
2019-02-18T14:45:22.351Z,47.53
2019-02-18T14:47:30.688Z,46.67
2019-02-18T14:49:38.451Z,42.67
2019-02-18T14:51:46.668Z,44.00
2019-02-18T14:53:55.153Z,41.40
2019-02-18T14:56:03.230Z,46.93
2019-02-18T14:58:11.630Z,38.80
2019-02-18T15:00:24.220Z,41.03
2019-02-18T15:02:31.909Z,41.93
2019-02-18T15:04:39.708Z,39.07
2019-02-18T15:06:47.376Z,44.40
2019-02-18T15:08:55.363Z,41.20
2019-02-18T15:11:03.810Z,44.10
2019-02-18T15:13:11.660Z,35.73
2019-02-18T15:15:19.517Z,41.27
2019-02-18T15:17:27.302Z,40.03
2019-02-18T15:19:35.183Z,40.60
2019-02-18T15:21:43.179Z,50.43
2019-02-18T15:23:51.023Z,40.00
2019-02-18T15:25:58.880Z,49.10
2019-02-18T15:28:07.043Z,49.13
2019-02-18T15:30:15.950Z,48.77
2019-02-18T15:32:23.807Z,45.07
2019-02-18T15:34:31.761Z,47.37
2019-02-18T15:36:39.694Z,44.57
2019-02-18T15:38:48.088Z,48.03
2019-02-18T15:40:56.305Z,52.93
2019-02-18T15:43:06.594Z,46.53
2019-02-18T15:45:15.952Z,46.77
2019-02-18T15:47:24.363Z,52.37
2019-02-18T15:49:33.335Z,53.70
2019-02-18T15:51:41.466Z,49.30
2019-02-18T15:53:49.181Z,51.13
2019-02-18T15:55:57.006Z,49.63
2019-02-18T15:58:04.919Z,55.63
2019-02-18T16:00:17.913Z,53.63
2019-02-18T16:02:26.047Z,64.90
2019-02-18T16:04:33.912Z,60.07
2019-02-18T16:06:41.950Z,68.37
2019-02-18T16:08:49.675Z,65.00
2019-02-18T16:10:57.585Z,72.57
2019-02-18T16:13:05.516Z,68.17
2019-02-18T16:15:13.553Z,76.10
2019-02-18T16:17:21.689Z,74.37
2019-02-18T16:19:49.747Z,78.20
2019-02-18T16:21:57.884Z,83.70
2019-02-18T16:24:07.057Z,76.50
2019-02-18T16:26:14.923Z,75.40
2019-02-18T16:28:22.713Z,80.50
2019-02-18T16:30:31.226Z,86.20
2019-02-18T16:32:39.008Z,86.30
2019-02-18T16:34:46.794Z,87.03
2019-02-18T16:36:54.885Z,83.47
2019-02-18T16:39:02.559Z,83.47
2019-02-18T16:41:10.363Z,84.77
2019-02-18T16:43:18.509Z,92.77
2019-02-18T16:45:26.488Z,97.97
2019-02-18T16:47:34.446Z,105.87
2019-02-18T16:49:42.432Z,103.23
2019-02-18T16:51:50.573Z,104.30
2019-02-18T16:53:58.328Z,106.50
2019-02-18T16:56:06.239Z,119.43
2019-02-18T16:58:14.186Z,108.23
2019-02-18T17:00:26.490Z,119.50
2019-02-18T17:02:34.424Z,124.93
2019-02-18T17:04:42.279Z,116.67
2019-02-18T17:06:50.338Z,130.10
2019-02-18T17:08:58.475Z,134.10
2019-02-18T17:11:06.370Z,143.60
2019-02-18T17:13:14.228Z,158.63
2019-02-18T17:15:22.326Z,186.27
2019-02-18T17:17:30.131Z,186.53
2019-02-18T17:19:37.930Z,207.53
2019-02-18T17:21:45.873Z,195.73
2019-02-18T17:23:53.674Z,200.73
2019-02-18T17:26:01.535Z,177.73
2019-02-18T17:28:11.350Z,156.23
2019-02-18T17:30:20.400Z,159.73
2019-02-18T17:32:28.582Z,149.53
2019-02-18T17:34:36.449Z,142.47
2019-02-18T17:36:44.516Z,137.70
2019-02-18T17:38:52.725Z,129.73
2019-02-18T17:41:01.540Z,139.13
2019-02-18T17:43:16.208Z,133.60
2019-02-18T17:45:18.964Z,127.37
2019-02-18T17:47:26.724Z,123.93
2019-02-18T17:49:34.643Z,115.57
2019-02-18T17:51:42.464Z,126.07
2019-02-18T17:53:50.657Z,122.00
2019-02-18T17:55:58.528Z,122.90
2019-02-18T17:58:06.453Z,118.67
2019-02-18T18:00:18.350Z,119.07
2019-02-18T18:02:26.523Z,118.13
2019-02-18T18:04:34.713Z,116.00
2019-02-18T18:06:42.776Z,111.27
2019-02-18T18:08:50.892Z,122.37
2019-02-18T18:10:58.700Z,119.27
2019-02-18T18:13:06.438Z,126.10
2019-02-18T18:15:14.916Z,135.10
2019-02-18T18:17:23.626Z,131.07
2019-02-18T18:19:31.390Z,125.50
2019-02-18T18:21:39.196Z,133.17
2019-02-18T18:23:47.860Z,140.70
2019-02-18T18:25:55.970Z,129.03
2019-02-18T18:28:03.864Z,127.67
2019-02-18T18:30:13.601Z,149.27
2019-02-18T18:32:21.320Z,142.90
2019-02-18T18:34:29.330Z,136.47
2019-02-18T18:36:37.626Z,139.77
2019-02-18T18:38:45.536Z,142.43
2019-02-18T18:40:53.469Z,141.43
2019-02-18T18:43:02.435Z,136.03
2019-02-18T18:45:13.293Z,139.40
2019-02-18T18:47:21.447Z,141.07
2019-02-18T18:49:29.590Z,142.17
2019-02-18T18:51:38.067Z,136.47
2019-02-18T18:53:46.471Z,139.83
2019-02-18T18:55:55.041Z,137.67
2019-02-18T18:58:03.441Z,137.80
2019-02-18T19:00:20.257Z,131.70
2019-02-18T19:02:28.914Z,129.10
2019-02-18T19:04:36.848Z,126.27
2019-02-18T19:06:46.047Z,131.03
2019-02-18T19:08:53.856Z,155.17
2019-02-18T19:11:01.754Z,138.77
2019-02-18T19:13:10.889Z,148.30
2019-02-18T19:15:19.093Z,169.17
2019-02-18T19:17:27.468Z,162.50
2019-02-18T19:19:36.665Z,138.63
2019-02-18T19:21:44.575Z,128.00
2019-02-18T19:23:52.358Z,127.73
2019-02-18T19:26:00.294Z,116.03
2019-02-18T19:28:09.649Z,118.73
2019-02-18T19:30:21.211Z,119.50
2019-02-18T19:32:30.761Z,122.63
2019-02-18T19:34:38.545Z,126.77
2019-02-18T19:36:46.422Z,121.53
2019-02-18T19:38:54.382Z,128.57
2019-02-18T19:41:02.165Z,121.00
2019-02-18T19:43:11.014Z,115.37
2019-02-18T19:45:21.108Z,122.23
2019-02-18T19:47:29.556Z,132.00
2019-02-18T19:49:37.887Z,115.53
2019-02-18T19:51:45.598Z,119.43
2019-02-18T19:53:53.435Z,121.10
2019-02-18T19:56:01.361Z,116.17
2019-02-18T19:58:09.469Z,140.73
2019-02-18T20:00:18.836Z,153.27
2019-02-18T20:02:26.570Z,187.87
2019-02-18T20:04:34.664Z,193.20
2019-02-18T20:06:43.297Z,184.30
2019-02-18T20:08:51.815Z,213.87
2019-02-18T20:11:00.350Z,217.57
2019-02-18T20:13:09.158Z,227.87
2019-02-18T20:15:17.194Z,211.27
2019-02-18T20:17:25.091Z,221.43
2019-02-18T20:19:32.852Z,235.87
2019-02-18T20:21:41.185Z,227.80
2019-02-18T20:23:50.809Z,220.23
2019-02-18T20:25:58.924Z,216.33
2019-02-18T20:28:06.822Z,218.40
2019-02-18T20:30:15.147Z,213.30
2019-02-18T20:32:23.264Z,234.87
2019-02-18T20:34:31.169Z,231.73
2019-02-18T20:36:39.057Z,233.90
2019-02-18T20:38:47.110Z,230.17
2019-02-18T20:40:54.992Z,207.10
2019-02-18T20:43:02.789Z,218.33
2019-02-18T20:45:11.857Z,221.57
2019-02-18T20:47:21.462Z,215.33
2019-02-18T20:49:29.454Z,247.67
2019-02-18T20:51:37.437Z,267.27
2019-02-18T20:53:45.760Z,268.93
2019-02-18T20:55:53.822Z,276.67
2019-02-18T20:58:01.812Z,271.57
2019-02-18T21:00:16.778Z,299.20
2019-02-18T21:02:25.046Z,301.57
2019-02-18T21:04:32.980Z,300.17
2019-02-18T21:06:40.684Z,268.50
2019-02-18T21:08:48.486Z,275.73
2019-02-18T21:10:57.155Z,277.23
2019-02-18T21:13:05.046Z,275.93
2019-02-18T21:15:13.561Z,274.20
2019-02-18T21:17:21.795Z,299.60
2019-02-18T21:19:29.782Z,268.50
2019-02-18T21:21:37.846Z,271.07
2019-02-18T21:23:45.721Z,283.97
2019-02-18T21:25:53.662Z,289.53
2019-02-18T21:28:01.580Z,264.90
2019-02-18T21:30:10.641Z,330.10
2019-02-18T21:32:18.449Z,335.63
2019-02-18T21:34:26.341Z,438.20
2019-02-18T21:36:34.884Z,406.60
2019-02-18T21:38:42.854Z,311.23
2019-02-18T21:40:51.217Z,281.93
2019-02-18T21:42:59.297Z,236.83
2019-02-18T21:45:07.586Z,214.63
2019-02-18T21:47:15.434Z,213.77
2019-02-18T21:49:23.336Z,187.23
2019-02-18T21:51:31.070Z,190.33
2019-02-18T21:53:39.023Z,166.57
2019-02-18T21:55:47.054Z,154.73
2019-02-18T21:57:54.993Z,158.93
2019-02-18T22:00:02.927Z,155.47
2019-02-18T22:02:10.946Z,167.83
2019-02-18T22:04:18.778Z,165.27
2019-02-18T22:06:26.727Z,158.13
2019-02-18T22:08:34.557Z,150.30
2019-02-18T22:10:42.764Z,139.30
2019-02-18T22:12:50.581Z,135.33
2019-02-18T22:14:58.539Z,133.93
2019-02-18T22:17:06.442Z,140.33
2019-02-18T22:19:14.591Z,141.97
2019-02-18T22:21:23.964Z,128.90
2019-02-18T22:23:31.867Z,131.77
2019-02-18T22:25:40.056Z,132.13
2019-02-18T22:27:47.902Z,131.87
2019-02-18T22:29:55.655Z,123.83
2019-02-18T22:32:03.563Z,124.13
2019-02-18T22:34:11.379Z,123.47
2019-02-18T22:36:19.319Z,128.97
2019-02-18T22:38:27.210Z,124.97
2019-02-18T22:40:34.977Z,126.27
2019-02-18T22:42:42.755Z,126.33
2019-02-18T22:44:50.853Z,127.53
2019-02-18T22:46:58.809Z,133.40
2019-02-18T22:49:06.673Z,125.23
2019-02-18T22:51:14.411Z,123.43
2019-02-18T22:53:22.569Z,125.00
2019-02-18T22:55:30.384Z,125.50
2019-02-18T22:57:38.247Z,134.10
2019-02-18T22:59:46.047Z,155.87
2019-02-18T23:01:53.972Z,190.00
2019-02-18T23:04:01.872Z,197.80
2019-02-18T23:06:09.695Z,175.10
2019-02-18T23:08:17.717Z,160.03
2019-02-18T23:10:25.587Z,148.40
2019-02-18T23:12:33.127Z,138.20
2019-02-18T23:14:41.308Z,132.80
2019-02-18T23:16:49.239Z,136.17
2019-02-18T23:18:56.986Z,136.20
2019-02-18T23:21:05.017Z,126.23
2019-02-18T23:23:12.735Z,120.73
2019-02-18T23:25:20.541Z,130.00
2019-02-18T23:27:28.393Z,124.13
2019-02-18T23:29:36.517Z,120.97
2019-02-18T23:31:44.354Z,127.33
2019-02-18T23:33:51.942Z,124.43
2019-02-18T23:35:59.994Z,120.63
2019-02-18T23:38:07.886Z,120.53
2019-02-18T23:40:15.542Z,128.47
2019-02-18T23:42:23.384Z,121.50
2019-02-18T23:44:31.449Z,126.83
2019-02-18T23:46:39.320Z,119.90
2019-02-18T23:48:47.094Z,128.73
2019-02-18T23:50:54.948Z,118.90
2019-02-18T23:53:02.622Z,122.33
2019-02-18T23:55:10.482Z,127.33
2019-02-18T23:57:18.150Z,125.00
2019-02-18T23:59:25.914Z,127.77
